sensor_id;sensor_type;location;lat;lon;timestamp;P1;durP1;ratioP1;P2;durP2;ratioP2
35562;SDS011;21665;40.108;18.302;2022-08-19T00:14:58;29.08;;;17.90;;
35562;SDS011;21665;40.108;18.302;2022-08-19T00:24:37;28.65;;;16.83;;
35562;SDS011;21665;40.108;18.302;2022-08-19T00:27:06;32.28;;;17.00;;
35562;SDS011;21665;40.108;18.302;2022-08-19T00:35:11;54.50;;;23.95;;
35562;SDS011;21665;40.108;18.302;2022-08-19T00:37:40;59.53;;;25.98;;
35562;SDS011;21665;40.108;18.302;2022-08-19T00:53:48;74.20;;;26.95;;
35562;SDS011;21665;40.108;18.302;2022-08-19T00:59:33;72.63;;;26.77;;
35562;SDS011;21665;40.108;18.302;2022-08-19T01:04:52;73.72;;;28.88;;
35562;SDS011;21665;40.108;18.302;2022-08-19T07:00:00;17.83;;;13.77;;
35562;SDS011;21665;40.108;18.302;2022-08-19T07:02:27;20.95;;;12.90;;
35562;SDS011;21665;40.108;18.302;2022-08-19T07:04:57;26.50;;;13.82;;
35562;SDS011;21665;40.108;18.302;2022-08-19T07:07:29;21.92;;;14.70;;
35562;SDS011;21665;40.108;18.302;2022-08-19T07:09:57;26.88;;;15.13;;
35562;SDS011;21665;40.108;18.302;2022-08-19T07:12:24;25.10;;;13.98;;
35562;SDS011;21665;40.108;18.302;2022-08-19T07:14:51;26.27;;;14.80;;
35562;SDS011;21665;40.108;18.302;2022-08-19T07:17:18;18.75;;;14.23;;
35562;SDS011;21665;40.108;18.302;2022-08-19T07:19:45;19.10;;;14.32;;
35562;SDS011;21665;40.108;18.302;2022-08-19T07:22:11;17.77;;;14.48;;
35562;SDS011;21665;40.108;18.302;2022-08-19T07:24:38;18.17;;;14.00;;
35562;SDS011;21665;40.108;18.302;2022-08-19T07:27:05;30.73;;;15.02;;
35562;SDS011;21665;40.108;18.302;2022-08-19T07:29:33;25.60;;;14.77;;
35562;SDS011;21665;40.108;18.302;2022-08-19T07:32:02;23.55;;;14.20;;
35562;SDS011;21665;40.108;18.302;2022-08-19T07:34:33;34.85;;;15.68;;
35562;SDS011;21665;40.108;18.302;2022-08-19T07:37:04;22.88;;;14.75;;
35562;SDS011;21665;40.108;18.302;2022-08-19T07:39:33;26.17;;;14.68;;
35562;SDS011;21665;40.108;18.302;2022-08-19T07:42:02;20.00;;;14.90;;
35562;SDS011;21665;40.108;18.302;2022-08-19T07:44:32;22.85;;;15.85;;
35562;SDS011;21665;40.108;18.302;2022-08-19T07:47:00;21.40;;;15.10;;
35562;SDS011;21665;40.108;18.302;2022-08-19T07:49:28;22.90;;;15.43;;
35562;SDS011;21665;40.108;18.302;2022-08-19T07:51:56;20.75;;;15.30;;
35562;SDS011;21665;40.108;18.302;2022-08-19T07:54:29;26.90;;;15.02;;
35562;SDS011;21665;40.108;18.302;2022-08-19T08:26:27;23.75;;;14.32;;
35562;SDS011;21665;40.108;18.302;2022-08-19T08:35:09;32.10;;;16.02;;
35562;SDS011;21665;40.108;18.302;2022-08-19T09:15:04;20.92;;;14.35;;
35562;SDS011;21665;40.108;18.302;2022-08-19T09:17:37;21.00;;;14.25;;
35562;SDS011;21665;40.108;18.302;2022-08-19T09:20:08;20.92;;;14.23;;
35562;SDS011;21665;40.108;18.302;2022-08-19T09:22:45;27.33;;;14.77;;
35562;SDS011;21665;40.108;18.302;2022-08-19T09:25:15;18.92;;;14.32;;
35562;SDS011;21665;40.108;18.302;2022-08-19T09:27:48;23.02;;;14.82;;
35562;SDS011;21665;40.108;18.302;2022-08-19T09:30:19;29.38;;;14.90;;
35562;SDS011;21665;40.108;18.302;2022-08-19T09:32:49;30.83;;;15.55;;
35562;SDS011;21665;40.108;18.302;2022-08-19T09:38:23;26.05;;;14.52;;
35562;SDS011;21665;40.108;18.302;2022-08-19T09:40:50;29.25;;;14.73;;
35562;SDS011;21665;40.108;18.302;2022-08-19T09:43:16;19.15;;;13.85;;
35562;SDS011;21665;40.108;18.302;2022-08-19T09:45:43;26.92;;;14.65;;
35562;SDS011;21665;40.108;18.302;2022-08-19T09:48:10;20.75;;;14.95;;
35562;SDS011;21665;40.108;18.302;2022-08-19T09:50:36;25.17;;;14.80;;
35562;SDS011;21665;40.108;18.302;2022-08-19T09:53:04;19.55;;;15.13;;
35562;SDS011;21665;40.108;18.302;2022-08-19T09:55:33;24.23;;;16.00;;
35562;SDS011;21665;40.108;18.302;2022-08-19T09:58:00;17.83;;;14.68;;
35562;SDS011;21665;40.108;18.302;2022-08-19T10:00:28;24.45;;;14.73;;
35562;SDS011;21665;40.108;18.302;2022-08-19T10:02:56;26.25;;;14.15;;
35562;SDS011;21665;40.108;18.302;2022-08-19T10:05:23;27.77;;;14.90;;
35562;SDS011;21665;40.108;18.302;2022-08-19T10:08:08;29.38;;;15.00;;
35562;SDS011;21665;40.108;18.302;2022-08-19T10:10:37;27.48;;;14.68;;
35562;SDS011;21665;40.108;18.302;2022-08-19T10:13:04;27.40;;;15.32;;
35562;SDS011;21665;40.108;18.302;2022-08-19T10:15:31;26.52;;;16.38;;
35562;SDS011;21665;40.108;18.302;2022-08-19T10:18:00;24.27;;;15.23;;
35562;SDS011;21665;40.108;18.302;2022-08-19T10:20:27;25.60;;;15.30;;
35562;SDS011;21665;40.108;18.302;2022-08-19T10:23:02;29.08;;;15.00;;
35562;SDS011;21665;40.108;18.302;2022-08-19T10:25:31;25.55;;;14.88;;
35562;SDS011;21665;40.108;18.302;2022-08-19T10:27:59;24.92;;;15.05;;
35562;SDS011;21665;40.108;18.302;2022-08-19T10:30:32;33.28;;;15.93;;
35562;SDS011;21665;40.108;18.302;2022-08-19T10:33:01;23.42;;;15.82;;
35562;SDS011;21665;40.108;18.302;2022-08-19T10:35:28;28.83;;;15.90;;
35562;SDS011;21665;40.108;18.302;2022-08-19T10:37:55;27.52;;;15.95;;
35562;SDS011;21665;40.108;18.302;2022-08-19T10:43:32;25.63;;;16.45;;
35562;SDS011;21665;40.108;18.302;2022-08-19T10:46:01;27.30;;;16.60;;
35562;SDS011;21665;40.108;18.302;2022-08-19T10:48:30;27.92;;;15.65;;
35562;SDS011;21665;40.108;18.302;2022-08-19T10:50:57;32.35;;;16.10;;
35562;SDS011;21665;40.108;18.302;2022-08-19T10:53:42;23.83;;;16.15;;
35562;SDS011;21665;40.108;18.302;2022-08-19T10:56:09;23.67;;;16.20;;
35562;SDS011;21665;40.108;18.302;2022-08-19T10:58:54;28.02;;;16.48;;
35562;SDS011;21665;40.108;18.302;2022-08-19T11:01:22;27.83;;;16.08;;
35562;SDS011;21665;40.108;18.302;2022-08-19T11:03:49;29.98;;;16.33;;
35562;SDS011;21665;40.108;18.302;2022-08-19T11:06:16;28.92;;;15.85;;
35562;SDS011;21665;40.108;18.302;2022-08-19T11:08:42;26.60;;;15.63;;
35562;SDS011;21665;40.108;18.302;2022-08-19T11:11:11;31.73;;;15.45;;
35562;SDS011;21665;40.108;18.302;2022-08-19T11:13:39;27.90;;;15.60;;
35562;SDS011;21665;40.108;18.302;2022-08-19T11:16:10;27.42;;;15.95;;
35562;SDS011;21665;40.108;18.302;2022-08-19T11:18:58;31.15;;;17.13;;
35562;SDS011;21665;40.108;18.302;2022-08-19T11:21:33;25.60;;;15.98;;
35562;SDS011;21665;40.108;18.302;2022-08-19T11:24:06;30.67;;;16.45;;
35562;SDS011;21665;40.108;18.302;2022-08-19T11:26:36;38.88;;;16.50;;
35562;SDS011;21665;40.108;18.302;2022-08-19T11:29:07;25.38;;;15.77;;
35562;SDS011;21665;40.108;18.302;2022-08-19T11:31:48;27.23;;;15.93;;
35562;SDS011;21665;40.108;18.302;2022-08-19T11:34:20;25.98;;;16.30;;
35562;SDS011;21665;40.108;18.302;2022-08-19T11:37:33;28.92;;;17.05;;
35562;SDS011;21665;40.108;18.302;2022-08-19T11:43:07;26.05;;;16.08;;
35562;SDS011;21665;40.108;18.302;2022-08-19T11:45:37;26.60;;;15.85;;
35562;SDS011;21665;40.108;18.302;2022-08-19T11:48:18;28.15;;;16.20;;
35562;SDS011;21665;40.108;18.302;2022-08-19T11:50:51;30.35;;;16.45;;
35562;SDS011;21665;40.108;18.302;2022-08-19T11:53:23;26.95;;;16.45;;
35562;SDS011;21665;40.108;18.302;2022-08-19T11:55:52;28.85;;;15.80;;
35562;SDS011;21665;40.108;18.302;2022-08-19T11:58:22;20.77;;;16.30;;
35562;SDS011;21665;40.108;18.302;2022-08-19T12:00:50;28.92;;;17.05;;
35562;SDS011;21665;40.108;18.302;2022-08-19T12:03:36;32.75;;;17.15;;
35562;SDS011;21665;40.108;18.302;2022-08-19T12:06:07;30.48;;;16.85;;
35562;SDS011;21665;40.108;18.302;2022-08-19T12:08:39;24.85;;;16.30;;
35562;SDS011;21665;40.108;18.302;2022-08-19T12:11:07;32.22;;;16.52;;
35562;SDS011;21665;40.108;18.302;2022-08-19T12:13:37;27.35;;;16.45;;
35562;SDS011;21665;40.108;18.302;2022-08-19T12:16:08;24.90;;;15.48;;
35562;SDS011;21665;40.108;18.302;2022-08-19T12:18:56;35.88;;;17.73;;
35562;SDS011;21665;40.108;18.302;2022-08-19T12:21:25;23.48;;;16.90;;
35562;SDS011;21665;40.108;18.302;2022-08-19T12:23:59;36.72;;;18.02;;
35562;SDS011;21665;40.108;18.302;2022-08-19T12:26:28;33.55;;;17.65;;
35562;SDS011;21665;40.108;18.302;2022-08-19T12:29:09;29.55;;;17.50;;
35562;SDS011;21665;40.108;18.302;2022-08-19T12:31:35;35.80;;;17.42;;
35562;SDS011;21665;40.108;18.302;2022-08-19T12:34:02;24.95;;;17.50;;
35562;SDS011;21665;40.108;18.302;2022-08-19T12:36:29;34.22;;;17.95;;
35562;SDS011;21665;40.108;18.302;2022-08-19T12:38:57;33.10;;;17.13;;
35562;SDS011;21665;40.108;18.302;2022-08-19T12:44:16;30.02;;;17.17;;
35562;SDS011;21665;40.108;18.302;2022-08-19T12:46:43;28.30;;;17.38;;
35562;SDS011;21665;40.108;18.302;2022-08-19T12:49:10;29.33;;;17.83;;
35562;SDS011;21665;40.108;18.302;2022-08-19T12:51:37;32.05;;;17.77;;
35562;SDS011;21665;40.108;18.302;2022-08-19T12:54:03;27.75;;;17.75;;
35562;SDS011;21665;40.108;18.302;2022-08-19T12:56:30;25.05;;;17.27;;
35562;SDS011;21665;40.108;18.302;2022-08-19T12:58:57;37.92;;;17.83;;
35562;SDS011;21665;40.108;18.302;2022-08-19T13:01:26;29.02;;;17.10;;
35562;SDS011;21665;40.108;18.302;2022-08-19T13:03:56;36.85;;;17.55;;
35562;SDS011;21665;40.108;18.302;2022-08-19T13:06:26;32.75;;;17.23;;
35562;SDS011;21665;40.108;18.302;2022-08-19T13:09:17;35.22;;;17.25;;
35562;SDS011;21665;40.108;18.302;2022-08-19T13:12:43;31.15;;;17.23;;
35562;SDS011;21665;40.108;18.302;2022-08-19T13:15:16;32.17;;;17.45;;
35562;SDS011;21665;40.108;18.302;2022-08-19T13:33:54;31.58;;;18.05;;
35562;SDS011;21665;40.108;18.302;2022-08-19T13:40:00;28.88;;;17.30;;
35562;SDS011;21665;40.108;18.302;2022-08-19T13:42:33;25.50;;;17.08;;
35562;SDS011;21665;40.108;18.302;2022-08-19T13:45:06;31.20;;;16.80;;
35562;SDS011;21665;40.108;18.302;2022-08-19T14:04:27;33.88;;;17.17;;
35562;SDS011;21665;40.108;18.302;2022-08-19T16:52:44;35.20;;;14.27;;
35562;SDS011;21665;40.108;18.302;2022-08-19T16:55:12;35.13;;;14.98;;
35562;SDS011;21665;40.108;18.302;2022-08-19T16:57:39;31.10;;;15.00;;
35562;SDS011;21665;40.108;18.302;2022-08-19T17:00:06;38.35;;;14.10;;
35562;SDS011;21665;40.108;18.302;2022-08-19T17:02:35;24.77;;;15.77;;
35562;SDS011;21665;40.108;18.302;2022-08-19T17:05:02;29.70;;;15.05;;
35562;SDS011;21665;40.108;18.302;2022-08-19T17:07:31;35.95;;;15.40;;
35562;SDS011;21665;40.108;18.302;2022-08-19T17:10:24;28.45;;;14.07;;
35562;SDS011;21665;40.108;18.302;2022-08-19T17:12:51;33.10;;;15.60;;
35562;SDS011;21665;40.108;18.302;2022-08-19T17:15:19;24.65;;;14.63;;
35562;SDS011;21665;40.108;18.302;2022-08-19T17:17:45;30.00;;;13.82;;
35562;SDS011;21665;40.108;18.302;2022-08-19T17:20:12;29.85;;;14.52;;
35562;SDS011;21665;40.108;18.302;2022-08-19T17:22:39;31.80;;;14.48;;
35562;SDS011;21665;40.108;18.302;2022-08-19T17:25:05;32.20;;;14.82;;
35562;SDS011;21665;40.108;18.302;2022-08-19T17:27:35;30.50;;;14.15;;
35562;SDS011;21665;40.108;18.302;2022-08-19T17:30:03;35.10;;;13.18;;
35562;SDS011;21665;40.108;18.302;2022-08-19T17:32:40;39.30;;;16.00;;
35562;SDS011;21665;40.108;18.302;2022-08-19T17:35:07;28.30;;;14.02;;
35562;SDS011;21665;40.108;18.302;2022-08-19T17:37:34;26.85;;;13.30;;
35562;SDS011;21665;40.108;18.302;2022-08-19T17:40:05;37.78;;;13.75;;
35562;SDS011;21665;40.108;18.302;2022-08-19T17:42:33;37.78;;;15.05;;
35562;SDS011;21665;40.108;18.302;2022-08-19T17:45:01;39.30;;;14.05;;
35562;SDS011;21665;40.108;18.302;2022-08-19T17:47:29;30.50;;;14.23;;
35562;SDS011;21665;40.108;18.302;2022-08-19T17:49:56;23.73;;;14.52;;
35562;SDS011;21665;40.108;18.302;2022-08-19T17:52:23;30.48;;;14.00;;
35562;SDS011;21665;40.108;18.302;2022-08-19T17:54:50;35.75;;;14.35;;
35562;SDS011;21665;40.108;18.302;2022-08-19T17:57:17;41.00;;;14.57;;
35562;SDS011;21665;40.108;18.302;2022-08-19T17:59:43;32.30;;;14.10;;
35562;SDS011;21665;40.108;18.302;2022-08-19T18:02:13;35.42;;;14.45;;
35562;SDS011;21665;40.108;18.302;2022-08-19T18:04:41;34.35;;;14.70;;
35562;SDS011;21665;40.108;18.302;2022-08-19T18:07:08;37.70;;;14.30;;
35562;SDS011;21665;40.108;18.302;2022-08-19T18:09:38;40.03;;;16.55;;
35562;SDS011;21665;40.108;18.302;2022-08-19T18:12:10;30.02;;;14.82;;
35562;SDS011;21665;40.108;18.302;2022-08-19T18:14:38;32.50;;;13.93;;
35562;SDS011;21665;40.108;18.302;2022-08-19T18:17:10;37.47;;;14.20;;
35562;SDS011;21665;40.108;18.302;2022-08-19T18:19:42;32.65;;;14.50;;
35562;SDS011;21665;40.108;18.302;2022-08-19T18:28:35;32.08;;;14.63;;
35562;SDS011;21665;40.108;18.302;2022-08-19T18:31:05;41.63;;;16.10;;
35562;SDS011;21665;40.108;18.302;2022-08-19T18:33:32;38.63;;;15.98;;
35562;SDS011;21665;40.108;18.302;2022-08-19T18:35:59;29.88;;;15.95;;
35562;SDS011;21665;40.108;18.302;2022-08-19T18:38:26;43.95;;;16.05;;
35562;SDS011;21665;40.108;18.302;2022-08-19T18:41:11;33.75;;;15.73;;
35562;SDS011;21665;40.108;18.302;2022-08-19T18:43:56;35.25;;;16.73;;
35562;SDS011;21665;40.108;18.302;2022-08-19T18:46:42;48.67;;;16.65;;
35562;SDS011;21665;40.108;18.302;2022-08-19T18:49:28;31.13;;;16.42;;
35562;SDS011;21665;40.108;18.302;2022-08-19T18:51:57;49.97;;;17.98;;
35562;SDS011;21665;40.108;18.302;2022-08-19T18:54:28;36.83;;;15.50;;
35562;SDS011;21665;40.108;18.302;2022-08-19T18:56:58;36.88;;;16.08;;
35562;SDS011;21665;40.108;18.302;2022-08-19T18:59:25;30.20;;;14.88;;
35562;SDS011;21665;40.108;18.302;2022-08-19T19:01:54;39.72;;;16.55;;
35562;SDS011;21665;40.108;18.302;2022-08-19T19:04:25;38.20;;;15.98;;
35562;SDS011;21665;40.108;18.302;2022-08-19T19:06:55;30.30;;;16.27;;
35562;SDS011;21665;40.108;18.302;2022-08-19T19:09:23;33.00;;;15.55;;
35562;SDS011;21665;40.108;18.302;2022-08-19T19:11:53;29.55;;;15.38;;
35562;SDS011;21665;40.108;18.302;2022-08-19T19:14:24;36.88;;;15.95;;
35562;SDS011;21665;40.108;18.302;2022-08-19T19:16:57;36.58;;;15.50;;
35562;SDS011;21665;40.108;18.302;2022-08-19T19:19:27;25.52;;;14.70;;
35562;SDS011;21665;40.108;18.302;2022-08-19T19:21:55;29.48;;;14.77;;
35562;SDS011;21665;40.108;18.302;2022-08-19T19:24:28;32.10;;;15.93;;
35562;SDS011;21665;40.108;18.302;2022-08-19T19:26:58;30.05;;;14.82;;
35562;SDS011;21665;40.108;18.302;2022-08-19T19:29:30;33.93;;;16.20;;
35562;SDS011;21665;40.108;18.302;2022-08-19T19:31:57;30.45;;;14.02;;
35562;SDS011;21665;40.108;18.302;2022-08-19T19:34:24;28.23;;;14.55;;
35562;SDS011;21665;40.108;18.302;2022-08-19T19:36:51;31.60;;;14.07;;
35562;SDS011;21665;40.108;18.302;2022-08-19T19:39:21;27.15;;;14.48;;
35562;SDS011;21665;40.108;18.302;2022-08-19T19:41:53;28.50;;;14.57;;
35562;SDS011;21665;40.108;18.302;2022-08-19T19:44:23;37.05;;;14.27;;
35562;SDS011;21665;40.108;18.302;2022-08-19T19:46:51;34.13;;;13.77;;
35562;SDS011;21665;40.108;18.302;2022-08-19T19:49:21;33.40;;;13.90;;
35562;SDS011;21665;40.108;18.302;2022-08-19T19:51:48;37.35;;;14.05;;
35562;SDS011;21665;40.108;18.302;2022-08-19T19:54:17;27.73;;;12.50;;
35562;SDS011;21665;40.108;18.302;2022-08-19T19:56:45;33.90;;;13.85;;
35562;SDS011;21665;40.108;18.302;2022-08-19T19:59:15;37.72;;;13.40;;
35562;SDS011;21665;40.108;18.302;2022-08-19T20:01:43;28.88;;;13.68;;
35562;SDS011;21665;40.108;18.302;2022-08-19T20:07:01;35.50;;;13.82;;
35562;SDS011;21665;40.108;18.302;2022-08-19T20:09:29;39.28;;;14.98;;
35562;SDS011;21665;40.108;18.302;2022-08-19T20:12:05;36.65;;;14.30;;
35562;SDS011;21665;40.108;18.302;2022-08-19T20:14:33;30.60;;;13.73;;
35562;SDS011;21665;40.108;18.302;2022-08-19T20:17:03;41.08;;;13.90;;
35562;SDS011;21665;40.108;18.302;2022-08-19T20:19:30;36.45;;;13.63;;
35562;SDS011;21665;40.108;18.302;2022-08-19T20:22:03;38.60;;;14.20;;
35562;SDS011;21665;40.108;18.302;2022-08-19T20:24:31;32.50;;;12.98;;
35562;SDS011;21665;40.108;18.302;2022-08-19T20:27:00;37.83;;;12.73;;
35562;SDS011;21665;40.108;18.302;2022-08-19T20:29:29;28.10;;;13.02;;
35562;SDS011;21665;40.108;18.302;2022-08-19T20:31:56;24.63;;;12.05;;
35562;SDS011;21665;40.108;18.302;2022-08-19T20:34:29;33.05;;;12.70;;
35562;SDS011;21665;40.108;18.302;2022-08-19T20:36:56;29.58;;;12.90;;
35562;SDS011;21665;40.108;18.302;2022-08-19T20:39:23;27.80;;;12.80;;
35562;SDS011;21665;40.108;18.302;2022-08-19T20:41:50;35.83;;;12.68;;
35562;SDS011;21665;40.108;18.302;2022-08-19T20:44:17;30.85;;;12.55;;
35562;SDS011;21665;40.108;18.302;2022-08-19T20:46:44;39.13;;;13.88;;
35562;SDS011;21665;40.108;18.302;2022-08-19T20:49:11;30.40;;;14.13;;
35562;SDS011;21665;40.108;18.302;2022-08-19T20:51:38;29.75;;;13.93;;
35562;SDS011;21665;40.108;18.302;2022-08-19T20:54:04;36.53;;;14.23;;
35562;SDS011;21665;40.108;18.302;2022-08-19T20:56:31;24.88;;;11.88;;
35562;SDS011;21665;40.108;18.302;2022-08-19T20:58:59;30.38;;;12.70;;
35562;SDS011;21665;40.108;18.302;2022-08-19T21:01:29;26.23;;;12.43;;
35562;SDS011;21665;40.108;18.302;2022-08-19T21:03:56;27.30;;;12.23;;
35562;SDS011;21665;40.108;18.302;2022-08-19T21:06:23;34.60;;;13.20;;
35562;SDS011;21665;40.108;18.302;2022-08-19T21:08:50;37.97;;;12.43;;
35562;SDS011;21665;40.108;18.302;2022-08-19T21:11:20;26.45;;;11.82;;
35562;SDS011;21665;40.108;18.302;2022-08-19T21:13:47;41.25;;;12.48;;
35562;SDS011;21665;40.108;18.302;2022-08-19T21:16:14;32.92;;;12.50;;
35562;SDS011;21665;40.108;18.302;2022-08-19T21:18:41;36.00;;;13.07;;
35562;SDS011;21665;40.108;18.302;2022-08-19T21:21:08;32.28;;;12.35;;
35562;SDS011;21665;40.108;18.302;2022-08-19T21:23:34;32.33;;;13.35;;
35562;SDS011;21665;40.108;18.302;2022-08-19T21:28:50;32.03;;;13.93;;
35562;SDS011;21665;40.108;18.302;2022-08-19T21:31:16;39.38;;;13.40;;
35562;SDS011;21665;40.108;18.302;2022-08-19T21:33:44;28.70;;;13.60;;
35562;SDS011;21665;40.108;18.302;2022-08-19T21:36:11;29.77;;;14.02;;
35562;SDS011;21665;40.108;18.302;2022-08-19T21:38:41;35.20;;;14.10;;
35562;SDS011;21665;40.108;18.302;2022-08-19T21:44:47;34.45;;;13.57;;
35562;SDS011;21665;40.108;18.302;2022-08-19T21:51:46;29.98;;;13.18;;
35562;SDS011;21665;40.108;18.302;2022-08-19T21:54:18;30.45;;;14.30;;
35562;SDS011;21665;40.108;18.302;2022-08-19T21:56:57;25.38;;;13.88;;
35562;SDS011;21665;40.108;18.302;2022-08-19T22:00:46;23.13;;;13.00;;
35562;SDS011;21665;40.108;18.302;2022-08-19T22:17:03;28.80;;;13.57;;
35562;SDS011;21665;40.108;18.302;2022-08-19T22:19:45;32.47;;;14.15;;
35562;SDS011;21665;40.108;18.302;2022-08-19T22:22:22;29.70;;;13.68;;
35562;SDS011;21665;40.108;18.302;2022-08-19T22:25:06;26.70;;;14.70;;
35562;SDS011;21665;40.108;18.302;2022-08-19T22:27:35;24.50;;;13.50;;
35562;SDS011;21665;40.108;18.302;2022-08-19T22:30:07;26.35;;;14.15;;
35562;SDS011;21665;40.108;18.302;2022-08-19T22:32:49;24.60;;;13.82;;
35562;SDS011;21665;40.108;18.302;2022-08-19T22:35:20;33.20;;;13.93;;
35562;SDS011;21665;40.108;18.302;2022-08-19T22:38:14;34.85;;;14.10;;
35562;SDS011;21665;40.108;18.302;2022-08-19T22:41:14;30.70;;;12.95;;
35562;SDS011;21665;40.108;18.302;2022-08-19T22:43:51;24.63;;;13.95;;
35562;SDS011;21665;40.108;18.302;2022-08-19T22:46:19;27.50;;;14.30;;
35562;SDS011;21665;40.108;18.302;2022-08-19T22:48:46;36.30;;;14.32;;
35562;SDS011;21665;40.108;18.302;2022-08-19T22:51:16;32.35;;;14.32;;
